sensor_id;sensor_type;location;lat;lon;timestamp;P1;durP1;ratioP1;P2;durP2;ratioP2
23730;SDS011;12046;44.702;10.622;2023-08-12T00:00:45;1.88;;;1.77;;
23730;SDS011;12046;44.702;10.622;2023-08-12T00:03:11;2.03;;;1.92;;
23730;SDS011;12046;44.702;10.622;2023-08-12T00:05:41;2.05;;;1.60;;
23730;SDS011;12046;44.702;10.622;2023-08-12T00:08:15;1.88;;;1.77;;
23730;SDS011;12046;44.702;10.622;2023-08-12T00:10:41;1.60;;;1.50;;
23730;SDS011;12046;44.702;10.622;2023-08-12T00:13:09;2.67;;;2.17;;
23730;SDS011;12046;44.702;10.622;2023-08-12T00:15:45;2.27;;;2.17;;
23730;SDS011;12046;44.702;10.622;2023-08-12T00:18:11;2.20;;;1.77;;
23730;SDS011;12046;44.702;10.622;2023-08-12T00:20:37;2.53;;;2.00;;
23730;SDS011;12046;44.702;10.622;2023-08-12T00:23:26;1.90;;;1.60;;
23730;SDS011;12046;44.702;10.622;2023-08-12T00:25:57;1.65;;;1.55;;
23730;SDS011;12046;44.702;10.622;2023-08-12T00:28:26;1.48;;;1.38;;
23730;SDS011;12046;44.702;10.622;2023-08-12T00:31:01;1.33;;;1.23;;
23730;SDS011;12046;44.702;10.622;2023-08-12T00:33:26;1.40;;;1.30;;
23730;SDS011;12046;44.702;10.622;2023-08-12T00:35:55;1.63;;;1.52;;
23730;SDS011;12046;44.702;10.622;2023-08-12T00:38:24;1.50;;;1.40;;
23730;SDS011;12046;44.702;10.622;2023-08-12T00:40:53;1.60;;;1.50;;
23730;SDS011;12046;44.702;10.622;2023-08-12T00:43:21;1.50;;;1.40;;
23730;SDS011;12046;44.702;10.622;2023-08-12T00:45:47;1.80;;;1.70;;
23730;SDS011;12046;44.702;10.622;2023-08-12T00:48:15;2.13;;;1.30;;
23730;SDS011;12046;44.702;10.622;2023-08-12T00:50:45;1.75;;;1.63;;
23730;SDS011;12046;44.702;10.622;2023-08-12T00:53:17;2.28;;;1.45;;
23730;SDS011;12046;44.702;10.622;2023-08-12T00:55:46;1.92;;;1.75;;
23730;SDS011;12046;44.702;10.622;2023-08-12T00:58:14;3.45;;;2.08;;
23730;SDS011;12046;44.702;10.622;2023-08-12T01:00:43;2.67;;;2.42;;
23730;SDS011;12046;44.702;10.622;2023-08-12T01:03:14;2.60;;;2.40;;
23730;SDS011;12046;44.702;10.622;2023-08-12T01:05:43;2.33;;;2.10;;
23730;SDS011;12046;44.702;10.622;2023-08-12T01:08:11;2.25;;;2.05;;
23730;SDS011;12046;44.702;10.622;2023-08-12T01:10:37;2.30;;;2.10;;
23730;SDS011;12046;44.702;10.622;2023-08-12T01:13:16;1.90;;;1.80;;
23730;SDS011;12046;44.702;10.622;2023-08-12T01:15:47;1.85;;;1.73;;
23730;SDS011;12046;44.702;10.622;2023-08-12T01:18:17;2.00;;;1.90;;
23730;SDS011;12046;44.702;10.622;2023-08-12T01:20:43;2.05;;;1.83;;
23730;SDS011;12046;44.702;10.622;2023-08-12T01:23:10;1.90;;;1.80;;
23730;SDS011;12046;44.702;10.622;2023-08-12T01:25:39;1.80;;;1.70;;
23730;SDS011;12046;44.702;10.622;2023-08-12T01:28:08;2.15;;;2.05;;
23730;SDS011;12046;44.702;10.622;2023-08-12T01:30:46;1.90;;;1.80;;
23730;SDS011;12046;44.702;10.622;2023-08-12T01:33:49;1.55;;;1.45;;
23730;SDS011;12046;44.702;10.622;2023-08-12T01:36:23;2.33;;;1.92;;
23730;SDS011;12046;44.702;10.622;2023-08-12T01:38:51;2.25;;;2.05;;
23730;SDS011;12046;44.702;10.622;2023-08-12T01:41:20;2.28;;;2.10;;
23730;SDS011;12046;44.702;10.622;2023-08-12T01:43:48;1.92;;;1.80;;
23730;SDS011;12046;44.702;10.622;2023-08-12T01:46:14;2.28;;;2.00;;
23730;SDS011;12046;44.702;10.622;2023-08-12T01:48:40;2.15;;;2.05;;
23730;SDS011;12046;44.702;10.622;2023-08-12T01:51:06;2.20;;;2.00;;
23730;SDS011;12046;44.702;10.622;2023-08-12T01:53:32;2.00;;;1.80;;
23730;SDS011;12046;44.702;10.622;2023-08-12T01:55:57;2.35;;;2.05;;
23730;SDS011;12046;44.702;10.622;2023-08-12T01:58:23;2.40;;;1.77;;
23730;SDS011;12046;44.702;10.622;2023-08-12T02:00:52;2.30;;;2.10;;
23730;SDS011;12046;44.702;10.622;2023-08-12T02:03:18;2.30;;;2.10;;
23730;SDS011;12046;44.702;10.622;2023-08-12T02:05:44;2.50;;;2.15;;
23730;SDS011;12046;44.702;10.622;2023-08-12T02:08:09;2.20;;;2.10;;
23730;SDS011;12046;44.702;10.622;2023-08-12T02:10:35;2.67;;;2.40;;
23730;SDS011;12046;44.702;10.622;2023-08-12T02:13:01;3.58;;;2.63;;
23730;SDS011;12046;44.702;10.622;2023-08-12T02:15:28;5.18;;;2.63;;
23730;SDS011;12046;44.702;10.622;2023-08-12T02:17:54;4.05;;;2.70;;
23730;SDS011;12046;44.702;10.622;2023-08-12T02:20:20;2.65;;;2.40;;
23730;SDS011;12046;44.702;10.622;2023-08-12T02:22:48;2.40;;;2.22;;
23730;SDS011;12046;44.702;10.622;2023-08-12T02:25:14;3.00;;;2.40;;
23730;SDS011;12046;44.702;10.622;2023-08-12T02:27:40;2.58;;;2.30;;
23730;SDS011;12046;44.702;10.622;2023-08-12T02:30:06;3.00;;;2.80;;
23730;SDS011;12046;44.702;10.622;2023-08-12T02:32:32;2.60;;;2.40;;
23730;SDS011;12046;44.702;10.622;2023-08-12T02:34:58;2.58;;;2.38;;
23730;SDS011;12046;44.702;10.622;2023-08-12T02:37:26;2.30;;;2.10;;
23730;SDS011;12046;44.702;10.622;2023-08-12T02:39:52;2.40;;;2.20;;
23730;SDS011;12046;44.702;10.622;2023-08-12T02:42:18;1.95;;;1.85;;
23730;SDS011;12046;44.702;10.622;2023-08-12T02:44:43;3.28;;;2.80;;
23730;SDS011;12046;44.702;10.622;2023-08-12T02:47:14;2.72;;;2.53;;
23730;SDS011;12046;44.702;10.622;2023-08-12T02:49:43;3.20;;;2.50;;
23730;SDS011;12046;44.702;10.622;2023-08-12T02:52:09;2.42;;;2.22;;
23730;SDS011;12046;44.702;10.622;2023-08-12T02:54:35;3.00;;;2.40;;
23730;SDS011;12046;44.702;10.622;2023-08-12T02:57:00;2.30;;;2.20;;
23730;SDS011;12046;44.702;10.622;2023-08-12T02:59:26;2.20;;;2.10;;
23730;SDS011;12046;44.702;10.622;2023-08-12T03:01:52;2.58;;;2.22;;
23730;SDS011;12046;44.702;10.622;2023-08-12T03:04:18;2.33;;;2.20;;
23730;SDS011;12046;44.702;10.622;2023-08-12T03:06:43;2.45;;;2.25;;
23730;SDS011;12046;44.702;10.622;2023-08-12T03:09:09;2.20;;;1.95;;
23730;SDS011;12046;44.702;10.622;2023-08-12T03:11:35;2.20;;;2.10;;
23730;SDS011;12046;44.702;10.622;2023-08-12T03:14:00;2.63;;;2.42;;
23730;SDS011;12046;44.702;10.622;2023-08-12T03:16:26;3.53;;;2.30;;
23730;SDS011;12046;44.702;10.622;2023-08-12T03:18:55;4.10;;;2.40;;
23730;SDS011;12046;44.702;10.622;2023-08-12T03:21:21;2.55;;;2.42;;
23730;SDS011;12046;44.702;10.622;2023-08-12T03:23:49;2.90;;;2.70;;
23730;SDS011;12046;44.702;10.622;2023-08-12T03:26:15;2.80;;;2.60;;
23730;SDS011;12046;44.702;10.622;2023-08-12T03:28:41;2.78;;;2.58;;
23730;SDS011;12046;44.702;10.622;2023-08-12T03:31:06;3.63;;;2.70;;
23730;SDS011;12046;44.702;10.622;2023-08-12T03:33:32;2.47;;;2.28;;
23730;SDS011;12046;44.702;10.622;2023-08-12T03:36:01;2.72;;;2.53;;
23730;SDS011;12046;44.702;10.622;2023-08-12T03:38:27;2.83;;;2.63;;
23730;SDS011;12046;44.702;10.622;2023-08-12T03:40:53;2.72;;;2.53;;
23730;SDS011;12046;44.702;10.622;2023-08-12T03:43:18;2.50;;;2.30;;
23730;SDS011;12046;44.702;10.622;2023-08-12T03:45:44;2.90;;;2.70;;
23730;SDS011;12046;44.702;10.622;2023-08-12T03:48:10;2.80;;;2.60;;
23730;SDS011;12046;44.702;10.622;2023-08-12T03:50:37;3.47;;;3.15;;
23730;SDS011;12046;44.702;10.622;2023-08-12T03:53:03;2.83;;;2.63;;
23730;SDS011;12046;44.702;10.622;2023-08-12T03:55:30;3.42;;;2.70;;
23730;SDS011;12046;44.702;10.622;2023-08-12T03:57:59;2.63;;;2.42;;
23730;SDS011;12046;44.702;10.622;2023-08-12T04:00:25;2.88;;;2.67;;
23730;SDS011;12046;44.702;10.622;2023-08-12T04:02:52;3.10;;;2.90;;
23730;SDS011;12046;44.702;10.622;2023-08-12T04:05:17;2.97;;;2.67;;
23730;SDS011;12046;44.702;10.622;2023-08-12T04:07:43;2.78;;;2.58;;
23730;SDS011;12046;44.702;10.622;2023-08-12T04:10:09;3.25;;;2.97;;
23730;SDS011;12046;44.702;10.622;2023-08-12T04:12:35;3.22;;;2.88;;
23730;SDS011;12046;44.702;10.622;2023-08-12T04:15:01;4.15;;;3.83;;
23730;SDS011;12046;44.702;10.622;2023-08-12T04:17:29;3.28;;;3.08;;
23730;SDS011;12046;44.702;10.622;2023-08-12T04:19:55;3.78;;;3.47;;
23730;SDS011;12046;44.702;10.622;2023-08-12T04:22:21;4.40;;;4.10;;
23730;SDS011;12046;44.702;10.622;2023-08-12T04:24:47;3.85;;;3.55;;
23730;SDS011;12046;44.702;10.622;2023-08-12T04:27:12;3.10;;;2.90;;
23730;SDS011;12046;44.702;10.622;2023-08-12T04:29:38;3.13;;;2.47;;
23730;SDS011;12046;44.702;10.622;2023-08-12T04:32:04;3.20;;;2.78;;
23730;SDS011;12046;44.702;10.622;2023-08-12T04:34:33;2.90;;;2.70;;
23730;SDS011;12046;44.702;10.622;2023-08-12T04:36:59;2.75;;;2.55;;
23730;SDS011;12046;44.702;10.622;2023-08-12T04:39:28;2.90;;;2.70;;
23730;SDS011;12046;44.702;10.622;2023-08-12T04:41:53;3.33;;;2.92;;
23730;SDS011;12046;44.702;10.622;2023-08-12T04:44:19;2.92;;;2.63;;
23730;SDS011;12046;44.702;10.622;2023-08-12T04:46:45;2.60;;;2.40;;
23730;SDS011;12046;44.702;10.622;2023-08-12T04:49:11;2.58;;;2.40;;
23730;SDS011;12046;44.702;10.622;2023-08-12T04:51:37;3.17;;;2.88;;
23730;SDS011;12046;44.702;10.622;2023-08-12T04:54:03;2.88;;;2.67;;
23730;SDS011;12046;44.702;10.622;2023-08-12T04:56:29;2.95;;;2.70;;
23730;SDS011;12046;44.702;10.622;2023-08-12T04:58:58;2.63;;;2.42;;
23730;SDS011;12046;44.702;10.622;2023-08-12T05:01:31;2.80;;;2.60;;
23730;SDS011;12046;44.702;10.622;2023-08-12T05:03:56;2.83;;;2.63;;
23730;SDS011;12046;44.702;10.622;2023-08-12T05:06:28;3.47;;;3.10;;
23730;SDS011;12046;44.702;10.622;2023-08-12T05:08:54;3.35;;;3.08;;
23730;SDS011;12046;44.702;10.622;2023-08-12T05:11:20;2.60;;;2.40;;
23730;SDS011;12046;44.702;10.622;2023-08-12T05:13:46;3.10;;;2.90;;
23730;SDS011;12046;44.702;10.622;2023-08-12T05:16:12;3.13;;;2.90;;
23730;SDS011;12046;44.702;10.622;2023-08-12T05:18:37;2.97;;;2.60;;
23730;SDS011;12046;44.702;10.622;2023-08-12T05:21:03;3.10;;;2.90;;
23730;SDS011;12046;44.702;10.622;2023-08-12T05:23:31;2.97;;;2.78;;
23730;SDS011;12046;44.702;10.622;2023-08-12T05:26:00;3.22;;;2.67;;
23730;SDS011;12046;44.702;10.622;2023-08-12T05:28:26;2.97;;;2.70;;
23730;SDS011;12046;44.702;10.622;2023-08-12T05:30:52;4.07;;;3.03;;
23730;SDS011;12046;44.702;10.622;2023-08-12T05:33:20;3.33;;;3.03;;
23730;SDS011;12046;44.702;10.622;2023-08-12T05:35:49;2.78;;;2.58;;
23730;SDS011;12046;44.702;10.622;2023-08-12T05:38:15;3.00;;;2.70;;
23730;SDS011;12046;44.702;10.622;2023-08-12T05:40:44;2.90;;;2.70;;
23730;SDS011;12046;44.702;10.622;2023-08-12T05:43:10;3.63;;;3.33;;
23730;SDS011;12046;44.702;10.622;2023-08-12T05:45:35;3.40;;;3.10;;
23730;SDS011;12046;44.702;10.622;2023-08-12T05:48:01;3.30;;;3.00;;
23730;SDS011;12046;44.702;10.622;2023-08-12T05:50:27;4.00;;;3.70;;
23730;SDS011;12046;44.702;10.622;2023-08-12T05:52:53;3.17;;;2.97;;
23730;SDS011;12046;44.702;10.622;2023-08-12T05:55:19;3.15;;;2.95;;
23730;SDS011;12046;44.702;10.622;2023-08-12T05:57:45;2.72;;;2.53;;
23730;SDS011;12046;44.702;10.622;2023-08-12T06:00:11;3.65;;;2.75;;
23730;SDS011;12046;44.702;10.622;2023-08-12T06:02:57;3.50;;;3.20;;
23730;SDS011;12046;44.702;10.622;2023-08-12T06:05:32;2.92;;;2.72;;
23730;SDS011;12046;44.702;10.622;2023-08-12T06:07:58;3.00;;;2.80;;
23730;SDS011;12046;44.702;10.622;2023-08-12T06:10:30;3.13;;;2.67;;
23730;SDS011;12046;44.702;10.622;2023-08-12T06:12:58;2.55;;;2.35;;
23730;SDS011;12046;44.702;10.622;2023-08-12T06:15:24;2.88;;;2.67;;
23730;SDS011;12046;44.702;10.622;2023-08-12T06:17:52;3.47;;;2.65;;
23730;SDS011;12046;44.702;10.622;2023-08-12T06:20:18;2.65;;;2.45;;
23730;SDS011;12046;44.702;10.622;2023-08-12T06:22:46;2.65;;;2.45;;
23730;SDS011;12046;44.702;10.622;2023-08-12T06:25:12;2.63;;;2.42;;
23730;SDS011;12046;44.702;10.622;2023-08-12T06:27:41;2.80;;;2.60;;
23730;SDS011;12046;44.702;10.622;2023-08-12T06:30:07;2.47;;;2.33;;
23730;SDS011;12046;44.702;10.622;2023-08-12T06:32:33;2.60;;;2.40;;
23730;SDS011;12046;44.702;10.622;2023-08-12T06:34:59;3.60;;;3.30;;
23730;SDS011;12046;44.702;10.622;2023-08-12T06:37:31;2.95;;;2.75;;
23730;SDS011;12046;44.702;10.622;2023-08-12T06:40:03;2.47;;;2.38;;
23730;SDS011;12046;44.702;10.622;2023-08-12T06:42:35;3.00;;;2.80;;
23730;SDS011;12046;44.702;10.622;2023-08-12T06:45:00;2.40;;;2.30;;
23730;SDS011;12046;44.702;10.622;2023-08-12T06:47:37;3.08;;;2.78;;
23730;SDS011;12046;44.702;10.622;2023-08-12T06:50:03;2.72;;;2.53;;
23730;SDS011;12046;44.702;10.622;2023-08-12T06:52:29;3.55;;;2.90;;
23730;SDS011;12046;44.702;10.622;2023-08-12T06:54:55;3.20;;;3.00;;
23730;SDS011;12046;44.702;10.622;2023-08-12T06:57:20;3.30;;;3.00;;
23730;SDS011;12046;44.702;10.622;2023-08-12T06:59:56;3.90;;;3.60;;
23730;SDS011;12046;44.702;10.622;2023-08-12T07:02:37;3.15;;;2.95;;
23730;SDS011;12046;44.702;10.622;2023-08-12T07:05:14;3.25;;;2.95;;
23730;SDS011;12046;44.702;10.622;2023-08-12T07:07:39;3.00;;;2.80;;
23730;SDS011;12046;44.702;10.622;2023-08-12T07:10:05;2.97;;;2.78;;
23730;SDS011;12046;44.702;10.622;2023-08-12T07:12:40;3.17;;;2.88;;
23730;SDS011;12046;44.702;10.622;2023-08-12T07:15:15;2.47;;;2.28;;
23730;SDS011;12046;44.702;10.622;2023-08-12T07:17:41;3.47;;;2.53;;
23730;SDS011;12046;44.702;10.622;2023-08-12T07:20:09;2.28;;;2.17;;
23730;SDS011;12046;44.702;10.622;2023-08-12T07:22:47;4.13;;;2.83;;
23730;SDS011;12046;44.702;10.622;2023-08-12T07:25:16;5.32;;;4.28;;
23730;SDS011;12046;44.702;10.622;2023-08-12T07:27:41;3.95;;;3.65;;
23730;SDS011;12046;44.702;10.622;2023-08-12T07:30:07;5.30;;;2.97;;
23730;SDS011;12046;44.702;10.622;2023-08-12T07:32:35;2.92;;;2.63;;
23730;SDS011;12046;44.702;10.622;2023-08-12T07:35:02;2.80;;;2.60;;
23730;SDS011;12046;44.702;10.622;2023-08-12T07:37:31;3.92;;;2.85;;
23730;SDS011;12046;44.702;10.622;2023-08-12T07:39:56;3.08;;;2.88;;
23730;SDS011;12046;44.702;10.622;2023-08-12T07:42:25;3.65;;;3.35;;
23730;SDS011;12046;44.702;10.622;2023-08-12T07:44:51;3.22;;;2.92;;
23730;SDS011;12046;44.702;10.622;2023-08-12T07:47:17;2.97;;;2.78;;
23730;SDS011;12046;44.702;10.622;2023-08-12T07:49:43;2.80;;;2.60;;
23730;SDS011;12046;44.702;10.622;2023-08-12T07:52:09;3.35;;;3.03;;
23730;SDS011;12046;44.702;10.622;2023-08-12T07:54:37;4.60;;;3.15;;
23730;SDS011;12046;44.702;10.622;2023-08-12T07:57:03;3.20;;;3.00;;
23730;SDS011;12046;44.702;10.622;2023-08-12T07:59:29;2.92;;;2.72;;
23730;SDS011;12046;44.702;10.622;2023-08-12T08:01:58;4.65;;;3.15;;
23730;SDS011;12046;44.702;10.622;2023-08-12T08:04:29;3.47;;;3.15;;
23730;SDS011;12046;44.702;10.622;2023-08-12T08:07:08;3.65;;;3.35;;
23730;SDS011;12046;44.702;10.622;2023-08-12T08:09:45;3.20;;;2.75;;
23730;SDS011;12046;44.702;10.622;2023-08-12T08:12:10;2.60;;;2.40;;
23730;SDS011;12046;44.702;10.622;2023-08-12T08:14:37;2.63;;;2.42;;
23730;SDS011;12046;44.702;10.622;2023-08-12T08:17:08;3.20;;;2.90;;
23730;SDS011;12046;44.702;10.622;2023-08-12T08:19:37;2.88;;;2.65;;
23730;SDS011;12046;44.702;10.622;2023-08-12T08:22:08;2.85;;;2.65;;
23730;SDS011;12046;44.702;10.622;2023-08-12T08:24:34;2.28;;;2.08;;
23730;SDS011;12046;44.702;10.622;2023-08-12T08:27:00;3.40;;;3.05;;
23730;SDS011;12046;44.702;10.622;2023-08-12T08:29:32;2.60;;;2.40;;
23730;SDS011;12046;44.702;10.622;2023-08-12T08:31:57;2.67;;;2.47;;
23730;SDS011;12046;44.702;10.622;2023-08-12T08:34:23;2.30;;;2.20;;
23730;SDS011;12046;44.702;10.622;2023-08-12T08:36:58;5.05;;;2.25;;
23730;SDS011;12046;44.702;10.622;2023-08-12T08:39:27;3.00;;;2.80;;
23730;SDS011;12046;44.702;10.622;2023-08-12T08:41:53;2.95;;;2.75;;
23730;SDS011;12046;44.702;10.622;2023-08-12T08:44:29;2.70;;;2.50;;
23730;SDS011;12046;44.702;10.622;2023-08-12T08:46:59;2.22;;;2.08;;
23730;SDS011;12046;44.702;10.622;2023-08-12T08:49:29;3.08;;;2.40;;
23730;SDS011;12046;44.702;10.622;2023-08-12T08:51:57;4.00;;;3.70;;
23730;SDS011;12046;44.702;10.622;2023-08-12T08:54:24;2.63;;;2.42;;
23730;SDS011;12046;44.702;10.622;2023-08-12T08:56:52;2.60;;;2.40;;
23730;SDS011;12046;44.702;10.622;2023-08-12T08:59:21;2.58;;;2.20;;
23730;SDS011;12046;44.702;10.622;2023-08-12T09:01:47;3.20;;;3.00;;
23730;SDS011;12046;44.702;10.622;2023-08-12T09:04:40;4.20;;;3.90;;
23730;SDS011;12046;44.702;10.622;2023-08-12T09:07:09;4.35;;;3.50;;
23730;SDS011;12046;44.702;10.622;2023-08-12T09:09:45;2.75;;;2.55;;
23730;SDS011;12046;44.702;10.622;2023-08-12T09:14:55;3.58;;;3.28;;
23730;SDS011;12046;44.702;10.622;2023-08-12T09:17:42;4.47;;;2.97;;
23730;SDS011;12046;44.702;10.622;2023-08-12T09:20:08;3.15;;;2.63;;
23730;SDS011;12046;44.702;10.622;2023-08-12T09:22:43;2.80;;;2.60;;
23730;SDS011;12046;44.702;10.622;2023-08-12T09:25:09;2.90;;;2.60;;
23730;SDS011;12046;44.702;10.622;2023-08-12T09:27:58;3.63;;;3.17;;
23730;SDS011;12046;44.702;10.622;2023-08-12T09:31:05;2.20;;;2.10;;
23730;SDS011;12046;44.702;10.622;2023-08-12T09:33:38;2.97;;;2.40;;
23730;SDS011;12046;44.702;10.622;2023-08-12T09:36:05;2.47;;;2.28;;
23730;SDS011;12046;44.702;10.622;2023-08-12T09:38:31;2.42;;;2.22;;
23730;SDS011;12046;44.702;10.622;2023-08-12T09:41:08;2.50;;;2.30;;
23730;SDS011;12046;44.702;10.622;2023-08-12T09:43:44;2.75;;;2.20;;
23730;SDS011;12046;44.702;10.622;2023-08-12T09:46:12;2.20;;;2.10;;
23730;SDS011;12046;44.702;10.622;2023-08-12T09:48:39;2.15;;;1.88;;
23730;SDS011;12046;44.702;10.622;2023-08-12T09:51:05;2.45;;;2.20;;
23730;SDS011;12046;44.702;10.622;2023-08-12T09:53:36;1.90;;;1.80;;
23730;SDS011;12046;44.702;10.622;2023-08-12T09:56:36;2.10;;;2.00;;
23730;SDS011;12046;44.702;10.622;2023-08-12T09:59:12;2.13;;;1.92;;
23730;SDS011;12046;44.702;10.622;2023-08-12T10:01:40;1.90;;;1.80;;
23730;SDS011;12046;44.702;10.622;2023-08-12T10:04:13;1.95;;;1.40;;
23730;SDS011;12046;44.702;10.622;2023-08-12T10:06:50;2.13;;;1.98;;
23730;SDS011;12046;44.702;10.622;2023-08-12T10:11:54;2.17;;;1.98;;
23730;SDS011;12046;44.702;10.622;2023-08-12T10:14:26;2.10;;;1.90;;
23730;SDS011;12046;44.702;10.622;2023-08-12T10:16:53;2.38;;;1.85;;
23730;SDS011;12046;44.702;10.622;2023-08-12T10:19:19;2.25;;;2.05;;
23730;SDS011;12046;44.702;10.622;2023-08-12T10:21:50;2.78;;;2.53;;
23730;SDS011;12046;44.702;10.622;2023-08-12T10:24:23;3.60;;;1.88;;
23730;SDS011;12046;44.702;10.622;2023-08-12T10:26:59;1.98;;;1.85;;
23730;SDS011;12046;44.702;10.622;2023-08-12T10:29:29;2.45;;;1.70;;
23730;SDS011;12046;44.702;10.622;2023-08-12T10:31:55;1.85;;;1.75;;
23730;SDS011;12046;44.702;10.622;2023-08-12T10:34:24;2.00;;;1.80;;
23730;SDS011;12046;44.702;10.622;2023-08-12T10:36:57;1.80;;;1.70;;
23730;SDS011;12046;44.702;10.622;2023-08-12T10:39:27;2.22;;;1.90;;
23730;SDS011;12046;44.702;10.622;2023-08-12T10:41:57;2.65;;;2.03;;
23730;SDS011;12046;44.702;10.622;2023-08-12T10:44:39;2.03;;;1.80;;
23730;SDS011;12046;44.702;10.622;2023-08-12T10:47:14;2.30;;;2.10;;
23730;SDS011;12046;44.702;10.622;2023-08-12T10:49:43;1.73;;;1.63;;
23730;SDS011;12046;44.702;10.622;2023-08-12T10:52:31;2.72;;;2.42;;
23730;SDS011;12046;44.702;10.622;2023-08-12T10:57:54;2.90;;;2.60;;
23730;SDS011;12046;44.702;10.622;2023-08-12T11:00:26;2.22;;;2.03;;
23730;SDS011;12046;44.702;10.622;2023-08-12T11:02:54;2.05;;;1.95;;
23730;SDS011;12046;44.702;10.622;2023-08-12T11:05:22;2.05;;;1.85;;
23730;SDS011;12046;44.702;10.622;2023-08-12T11:07:55;3.38;;;2.33;;
23730;SDS011;12046;44.702;10.622;2023-08-12T11:10:31;2.30;;;2.15;;
23730;SDS011;12046;44.702;10.622;2023-08-12T11:12:58;3.03;;;2.05;;
23730;SDS011;12046;44.702;10.622;2023-08-12T11:15:29;2.25;;;1.80;;
23730;SDS011;12046;44.702;10.622;2023-08-12T11:17:58;1.70;;;1.60;;
23730;SDS011;12046;44.702;10.622;2023-08-12T11:20:24;2.20;;;2.00;;
23730;SDS011;12046;44.702;10.622;2023-08-12T11:22:52;2.35;;;1.80;;
23730;SDS011;12046;44.702;10.622;2023-08-12T11:25:18;1.92;;;1.83;;
23730;SDS011;12046;44.702;10.622;2023-08-12T11:27:45;1.90;;;1.80;;
23730;SDS011;12046;44.702;10.622;2023-08-12T11:30:16;2.47;;;2.00;;
23730;SDS011;12046;44.702;10.622;2023-08-12T11:32:44;2.17;;;1.90;;
23730;SDS011;12046;44.702;10.622;2023-08-12T11:35:12;1.80;;;1.70;;
23730;SDS011;12046;44.702;10.622;2023-08-12T11:37:41;2.50;;;1.67;;
23730;SDS011;12046;44.702;10.622;2023-08-12T11:40:12;2.10;;;1.90;;
23730;SDS011;12046;44.702;10.622;2023-08-12T11:42:40;1.90;;;1.77;;
23730;SDS011;12046;44.702;10.622;2023-08-12T11:45:10;2.85;;;2.00;;
23730;SDS011;12046;44.702;10.622;2023-08-12T11:47:38;1.80;;;1.70;;
23730;SDS011;12046;44.702;10.622;2023-08-12T11:50:09;1.90;;;1.80;;
23730;SDS011;12046;44.702;10.622;2023-08-12T11:52:36;1.98;;;1.88;;
23730;SDS011;12046;44.702;10.622;2023-08-12T11:55:03;2.25;;;2.05;;
23730;SDS011;12046;44.702;10.622;2023-08-12T11:57:30;1.70;;;1.60;;
23730;SDS011;12046;44.702;10.622;2023-08-12T12:00:00;2.67;;;2.00;;
23730;SDS011;12046;44.702;10.622;2023-08-12T12:02:49;2.88;;;1.95;;
23730;SDS011;12046;44.702;10.622;2023-08-12T12:05:22;1.92;;;1.77;;
23730;SDS011;12046;44.702;10.622;2023-08-12T12:07:59;2.38;;;1.77;;
23730;SDS011;12046;44.702;10.622;2023-08-12T12:10:29;3.22;;;2.20;;
23730;SDS011;12046;44.702;10.622;2023-08-12T12:13:00;3.80;;;2.10;;
23730;SDS011;12046;44.702;10.622;2023-08-12T12:15:30;2.65;;;1.85;;
23730;SDS011;12046;44.702;10.622;2023-08-12T12:17:57;2.08;;;1.98;;
23730;SDS011;12046;44.702;10.622;2023-08-12T12:20:23;1.90;;;1.80;;
23730;SDS011;12046;44.702;10.622;2023-08-12T12:22:49;2.63;;;2.42;;
23730;SDS011;12046;44.702;10.622;2023-08-12T12:25:20;3.10;;;2.00;;
23730;SDS011;12046;44.702;10.622;2023-08-12T12:30:22;2.92;;;1.90;;
23730;SDS011;12046;44.702;10.622;2023-08-12T12:32:48;2.25;;;1.65;;
23730;SDS011;12046;44.702;10.622;2023-08-12T12:35:16;1.70;;;1.60;;
23730;SDS011;12046;44.702;10.622;2023-08-12T12:37:45;2.00;;;1.90;;
23730;SDS011;12046;44.702;10.622;2023-08-12T12:40:11;2.08;;;1.98;;
23730;SDS011;12046;44.702;10.622;2023-08-12T12:42:37;2.10;;;1.90;;
23730;SDS011;12046;44.702;10.622;2023-08-12T12:45:03;2.03;;;1.92;;
23730;SDS011;12046;44.702;10.622;2023-08-12T12:47:32;1.90;;;1.80;;
23730;SDS011;12046;44.702;10.622;2023-08-12T12:49:58;2.10;;;1.90;;
23730;SDS011;12046;44.702;10.622;2023-08-12T12:52:24;2.35;;;2.15;;
23730;SDS011;12046;44.702;10.622;2023-08-12T12:54:52;2.53;;;1.63;;
23730;SDS011;12046;44.702;10.622;2023-08-12T12:57:18;2.00;;;1.90;;
23730;SDS011;12046;44.702;10.622;2023-08-12T12:59:44;1.90;;;1.80;;
23730;SDS011;12046;44.702;10.622;2023-08-12T13:02:13;3.55;;;2.00;;
23730;SDS011;12046;44.702;10.622;2023-08-12T13:04:38;2.30;;;2.10;;
23730;SDS011;12046;44.702;10.622;2023-08-12T13:07:04;3.50;;;1.90;;
23730;SDS011;12046;44.702;10.622;2023-08-12T13:09:30;2.13;;;1.85;;
23730;SDS011;12046;44.702;10.622;2023-08-12T13:11:56;1.80;;;1.70;;
23730;SDS011;12046;44.702;10.622;2023-08-12T13:14:23;1.75;;;1.65;;
23730;SDS011;12046;44.702;10.622;2023-08-12T13:16:53;2.03;;;1.88;;
23730;SDS011;12046;44.702;10.622;2023-08-12T13:19:18;2.75;;;1.73;;
23730;SDS011;12046;44.702;10.622;2023-08-12T13:21:44;2.15;;;1.95;;
23730;SDS011;12046;44.702;10.622;2023-08-12T13:24:10;2.00;;;1.80;;
23730;SDS011;12046;44.702;10.622;2023-08-12T13:26:35;1.55;;;1.45;;
23730;SDS011;12046;44.702;10.622;2023-08-12T13:29:01;1.83;;;1.60;;
23730;SDS011;12046;44.702;10.622;2023-08-12T13:31:30;2.03;;;1.83;;
23730;SDS011;12046;44.702;10.622;2023-08-12T13:33:56;2.90;;;2.10;;
23730;SDS011;12046;44.702;10.622;2023-08-12T13:36:21;2.63;;;2.10;;
23730;SDS011;12046;44.702;10.622;2023-08-12T13:38:50;2.78;;;1.90;;
23730;SDS011;12046;44.702;10.622;2023-08-12T13:41:19;1.85;;;1.75;;
23730;SDS011;12046;44.702;10.622;2023-08-12T13:43:45;2.10;;;1.88;;
23730;SDS011;12046;44.702;10.622;2023-08-12T13:46:13;2.53;;;1.83;;
23730;SDS011;12046;44.702;10.622;2023-08-12T13:48:39;2.08;;;1.95;;
23730;SDS011;12046;44.702;10.622;2023-08-12T13:51:07;2.13;;;2.03;;
23730;SDS011;12046;44.702;10.622;2023-08-12T13:53:36;1.90;;;1.80;;
23730;SDS011;12046;44.702;10.622;2023-08-12T13:56:02;3.40;;;1.60;;
23730;SDS011;12046;44.702;10.622;2023-08-12T13:58:28;2.35;;;1.60;;
23730;SDS011;12046;44.702;10.622;2023-08-12T14:00:54;2.03;;;1.80;;
23730;SDS011;12046;44.702;10.622;2023-08-12T14:03:19;2.63;;;1.70;;
23730;SDS011;12046;44.702;10.622;2023-08-12T14:05:45;3.38;;;2.00;;
23730;SDS011;12046;44.702;10.622;2023-08-12T14:08:11;1.95;;;1.80;;
23730;SDS011;12046;44.702;10.622;2023-08-12T14:10:39;2.63;;;2.00;;
23730;SDS011;12046;44.702;10.622;2023-08-12T14:13:05;2.30;;;1.90;;
23730;SDS011;12046;44.702;10.622;2023-08-12T14:15:34;2.75;;;1.60;;
23730;SDS011;12046;44.702;10.622;2023-08-12T14:18:00;1.85;;;1.75;;
23730;SDS011;12046;44.702;10.622;2023-08-12T14:20:25;1.95;;;1.85;;
23730;SDS011;12046;44.702;10.622;2023-08-12T14:22:51;1.80;;;1.70;;
23730;SDS011;12046;44.702;10.622;2023-08-12T14:25:20;1.92;;;1.80;;
23730;SDS011;12046;44.702;10.622;2023-08-12T14:27:46;2.13;;;1.92;;
23730;SDS011;12046;44.702;10.622;2023-08-12T14:30:11;1.80;;;1.70;;
23730;SDS011;12046;44.702;10.622;2023-08-12T14:32:37;1.65;;;1.52;;
23730;SDS011;12046;44.702;10.622;2023-08-12T14:35:06;2.00;;;1.90;;
23730;SDS011;12046;44.702;10.622;2023-08-12T14:37:32;2.83;;;2.10;;
23730;SDS011;12046;44.702;10.622;2023-08-12T14:39:58;2.75;;;1.73;;
23730;SDS011;12046;44.702;10.622;2023-08-12T14:42:24;1.95;;;1.85;;
23730;SDS011;12046;44.702;10.622;2023-08-12T14:44:49;1.92;;;1.73;;
23730;SDS011;12046;44.702;10.622;2023-08-12T14:47:15;1.90;;;1.80;;
23730;SDS011;12046;44.702;10.622;2023-08-12T14:49:43;2.00;;;1.90;;
23730;SDS011;12046;44.702;10.622;2023-08-12T14:52:18;1.92;;;1.58;;